sensor_id;sensor_type;location;lat;lon;timestamp;P1;durP1;ratioP1;P2;durP2;ratioP2
75700;SDS011;64321;48.796;44.740;2023-03-30T00:04:01;19.50;;;11.35;;
75700;SDS011;64321;48.796;44.740;2023-03-30T00:15:36;17.33;;;10.23;;
75700;SDS011;64321;48.796;44.740;2023-03-30T00:21:37;20.50;;;11.18;;
75700;SDS011;64321;48.796;44.740;2023-03-30T00:27:37;16.38;;;11.05;;
75700;SDS011;64321;48.796;44.740;2023-03-30T00:33:43;13.77;;;7.95;;
75700;SDS011;64321;48.796;44.740;2023-03-30T00:39:34;10.60;;;5.85;;
75700;SDS011;64321;48.796;44.740;2023-03-30T00:45:25;11.32;;;5.38;;
75700;SDS011;64321;48.796;44.740;2023-03-30T00:50:49;12.30;;;5.38;;
75700;SDS011;64321;48.796;44.740;2023-03-30T00:56:24;11.38;;;7.88;;
75700;SDS011;64321;48.796;44.740;2023-03-30T01:01:50;11.00;;;6.10;;
75700;SDS011;64321;48.796;44.740;2023-03-30T01:07:51;12.90;;;6.40;;
75700;SDS011;64321;48.796;44.740;2023-03-30T01:13:30;17.08;;;11.32;;
75700;SDS011;64321;48.796;44.740;2023-03-30T01:19:24;19.20;;;11.45;;
75700;SDS011;64321;48.796;44.740;2023-03-30T01:31:33;12.50;;;6.85;;
75700;SDS011;64321;48.796;44.740;2023-03-30T01:43:04;12.48;;;8.02;;
75700;SDS011;64321;48.796;44.740;2023-03-30T01:49:07;10.98;;;6.20;;
75700;SDS011;64321;48.796;44.740;2023-03-30T01:54:59;12.02;;;5.15;;
75700;SDS011;64321;48.796;44.740;2023-03-30T02:06:44;9.55;;;5.82;;
75700;SDS011;64321;48.796;44.740;2023-03-30T02:17:55;21.33;;;12.85;;
75700;SDS011;64321;48.796;44.740;2023-03-30T02:23:17;20.90;;;10.63;;
75700;SDS011;64321;48.796;44.740;2023-03-30T02:28:51;24.25;;;15.10;;
75700;SDS011;64321;48.796;44.740;2023-03-30T02:34:27;23.50;;;12.85;;
75700;SDS011;64321;48.796;44.740;2023-03-30T03:04:15;10.95;;;5.60;;
75700;SDS011;64321;48.796;44.740;2023-03-30T03:10:09;9.85;;;5.93;;
75700;SDS011;64321;48.796;44.740;2023-03-30T03:16:03;11.05;;;6.20;;
75700;SDS011;64321;48.796;44.740;2023-03-30T03:22:26;13.40;;;6.40;;
75700;SDS011;64321;48.796;44.740;2023-03-30T03:33:48;9.10;;;4.45;;
75700;SDS011;64321;48.796;44.740;2023-03-30T03:40:00;7.78;;;5.70;;
75700;SDS011;64321;48.796;44.740;2023-03-30T03:51:25;12.15;;;5.82;;
75700;SDS011;64321;48.796;44.740;2023-03-30T03:56:52;10.98;;;6.05;;
75700;SDS011;64321;48.796;44.740;2023-03-30T04:02:09;10.55;;;5.35;;
75700;SDS011;64321;48.796;44.740;2023-03-30T04:07:53;10.10;;;5.00;;
75700;SDS011;64321;48.796;44.740;2023-03-30T04:13:54;12.73;;;6.60;;
75700;SDS011;64321;48.796;44.740;2023-03-30T04:19:49;7.72;;;6.00;;
75700;SDS011;64321;48.796;44.740;2023-03-30T04:31:33;22.63;;;14.88;;
75700;SDS011;64321;48.796;44.740;2023-03-30T04:37:48;11.52;;;8.48;;
75700;SDS011;64321;48.796;44.740;2023-03-30T04:49:53;15.30;;;8.38;;
75700;SDS011;64321;48.796;44.740;2023-03-30T04:55:47;16.10;;;8.43;;
75700;SDS011;64321;48.796;44.740;2023-03-30T05:01:25;17.85;;;9.80;;
75700;SDS011;64321;48.796;44.740;2023-03-30T05:07:15;27.70;;;16.60;;
75700;SDS011;64321;48.796;44.740;2023-03-30T05:13:02;18.35;;;11.80;;
75700;SDS011;64321;48.796;44.740;2023-03-30T05:18:35;21.92;;;12.77;;
75700;SDS011;64321;48.796;44.740;2023-03-30T05:24:49;18.23;;;9.02;;
75700;SDS011;64321;48.796;44.740;2023-03-30T05:31:03;27.35;;;13.07;;
75700;SDS011;64321;48.796;44.740;2023-03-30T05:36:44;23.30;;;11.25;;
75700;SDS011;64321;48.796;44.740;2023-03-30T05:42:51;22.25;;;13.57;;
75700;SDS011;64321;48.796;44.740;2023-03-30T06:00:58;45.08;;;28.48;;
75700;SDS011;64321;48.796;44.740;2023-03-30T06:06:15;40.22;;;25.92;;
75700;SDS011;64321;48.796;44.740;2023-03-30T06:11:21;40.65;;;24.88;;
75700;SDS011;64321;48.796;44.740;2023-03-30T06:16:47;37.45;;;25.58;;
75700;SDS011;64321;48.796;44.740;2023-03-30T06:21:50;35.75;;;24.85;;
75700;SDS011;64321;48.796;44.740;2023-03-30T06:27:13;35.53;;;24.08;;
75700;SDS011;64321;48.796;44.740;2023-03-30T06:32:16;36.22;;;24.73;;
75700;SDS011;64321;48.796;44.740;2023-03-30T06:37:34;41.65;;;29.13;;
75700;SDS011;64321;48.796;44.740;2023-03-30T06:42:41;43.28;;;28.50;;
75700;SDS011;64321;48.796;44.740;2023-03-30T06:48:23;30.38;;;21.13;;
75700;SDS011;64321;48.796;44.740;2023-03-30T06:53:53;31.40;;;23.17;;
75700;SDS011;64321;48.796;44.740;2023-03-30T06:59:00;27.85;;;19.83;;
75700;SDS011;64321;48.796;44.740;2023-03-30T07:04:27;28.60;;;19.63;;
75700;SDS011;64321;48.796;44.740;2023-03-30T07:09:47;27.65;;;21.30;;
75700;SDS011;64321;48.796;44.740;2023-03-30T07:14:51;27.10;;;19.98;;
75700;SDS011;64321;48.796;44.740;2023-03-30T07:20:11;24.75;;;17.63;;
75700;SDS011;64321;48.796;44.740;2023-03-30T07:25:57;27.02;;;19.98;;
75700;SDS011;64321;48.796;44.740;2023-03-30T07:31:51;24.70;;;18.40;;
75700;SDS011;64321;48.796;44.740;2023-03-30T07:37:19;22.50;;;17.13;;
75700;SDS011;64321;48.796;44.740;2023-03-30T07:42:22;17.42;;;12.38;;
75700;SDS011;64321;48.796;44.740;2023-03-30T07:47:25;21.98;;;17.25;;
75700;SDS011;64321;48.796;44.740;2023-03-30T07:52:29;15.80;;;10.30;;
75700;SDS011;64321;48.796;44.740;2023-03-30T07:57:45;19.85;;;16.08;;
75700;SDS011;64321;48.796;44.740;2023-03-30T08:03:18;21.33;;;15.13;;
75700;SDS011;64321;48.796;44.740;2023-03-30T08:08:43;18.38;;;13.70;;
75700;SDS011;64321;48.796;44.740;2023-03-30T08:14:23;19.67;;;12.75;;
75700;SDS011;64321;48.796;44.740;2023-03-30T08:19:42;20.00;;;14.35;;
75700;SDS011;64321;48.796;44.740;2023-03-30T08:25:39;19.73;;;15.40;;
75700;SDS011;64321;48.796;44.740;2023-03-30T08:31:13;21.40;;;14.73;;
75700;SDS011;64321;48.796;44.740;2023-03-30T08:37:01;20.48;;;14.40;;
75700;SDS011;64321;48.796;44.740;2023-03-30T08:47:54;17.80;;;11.75;;
75700;SDS011;64321;48.796;44.740;2023-03-30T08:53:11;16.02;;;10.85;;
75700;SDS011;64321;48.796;44.740;2023-03-30T08:58:44;12.88;;;9.13;;
75700;SDS011;64321;48.796;44.740;2023-03-30T09:10:23;14.40;;;10.35;;
75700;SDS011;64321;48.796;44.740;2023-03-30T09:21:41;19.17;;;13.30;;
75700;SDS011;64321;48.796;44.740;2023-03-30T09:27:32;20.10;;;13.70;;
75700;SDS011;64321;48.796;44.740;2023-03-30T09:32:53;17.75;;;12.68;;
75700;SDS011;64321;48.796;44.740;2023-03-30T09:38:24;16.75;;;11.55;;
75700;SDS011;64321;48.796;44.740;2023-03-30T09:43:54;14.07;;;10.23;;
75700;SDS011;64321;48.796;44.740;2023-03-30T09:49:13;5.35;;;4.68;;
75700;SDS011;64321;48.796;44.740;2023-03-30T09:54:32;3.60;;;2.53;;
75700;SDS011;64321;48.796;44.740;2023-03-30T10:11:40;1.42;;;0.88;;
75700;SDS011;64321;48.796;44.740;2023-03-30T10:17:16;1.83;;;1.02;;
75700;SDS011;64321;48.796;44.740;2023-03-30T10:22:51;2.92;;;1.67;;
75700;SDS011;64321;48.796;44.740;2023-03-30T10:28:04;1.50;;;1.25;;
75700;SDS011;64321;48.796;44.740;2023-03-30T10:33:14;2.20;;;1.95;;
75700;SDS011;64321;48.796;44.740;2023-03-30T10:38:17;0.88;;;0.45;;
75700;SDS011;64321;48.796;44.740;2023-03-30T10:43:20;1.02;;;0.50;;
75700;SDS011;64321;48.796;44.740;2023-03-30T11:03:59;1.52;;;0.85;;
75700;SDS011;64321;48.796;44.740;2023-03-30T11:09:25;2.30;;;1.40;;
75700;SDS011;64321;48.796;44.740;2023-03-30T11:14:38;2.85;;;1.52;;
75700;SDS011;64321;48.796;44.740;2023-03-30T11:19:49;2.50;;;1.35;;
75700;SDS011;64321;48.796;44.740;2023-03-30T11:24:53;2.63;;;2.15;;
75700;SDS011;64321;48.796;44.740;2023-03-30T11:30:11;2.58;;;1.33;;
75700;SDS011;64321;48.796;44.740;2023-03-30T11:35:18;4.22;;;1.88;;
75700;SDS011;64321;48.796;44.740;2023-03-30T12:01:28;4.38;;;3.25;;
75700;SDS011;64321;48.796;44.740;2023-03-30T12:06:33;4.65;;;3.35;;
75700;SDS011;64321;48.796;44.740;2023-03-30T12:11:37;4.43;;;2.72;;
75700;SDS011;64321;48.796;44.740;2023-03-30T12:16:43;3.92;;;2.17;;
75700;SDS011;64321;48.796;44.740;2023-03-30T12:21:55;4.75;;;2.67;;
75700;SDS011;64321;48.796;44.740;2023-03-30T12:26:59;5.60;;;3.40;;
75700;SDS011;64321;48.796;44.740;2023-03-30T12:32:07;4.50;;;2.00;;
75700;SDS011;64321;48.796;44.740;2023-03-30T12:37:21;4.45;;;2.60;;
75700;SDS011;64321;48.796;44.740;2023-03-30T12:42:25;6.03;;;2.78;;
75700;SDS011;64321;48.796;44.740;2023-03-30T12:57:53;4.82;;;3.63;;
75700;SDS011;64321;48.796;44.740;2023-03-30T13:03:44;5.60;;;2.42;;
75700;SDS011;64321;48.796;44.740;2023-03-30T13:18:52;5.63;;;1.98;;
75700;SDS011;64321;48.796;44.740;2023-03-30T13:24:00;4.00;;;3.10;;
75700;SDS011;64321;48.796;44.740;2023-03-30T13:29:04;4.80;;;3.47;;
75700;SDS011;64321;48.796;44.740;2023-03-30T13:34:17;3.92;;;2.75;;
75700;SDS011;64321;48.796;44.740;2023-03-30T13:39:32;4.80;;;2.92;;
75700;SDS011;64321;48.796;44.740;2023-03-30T13:49:43;4.93;;;2.85;;
75700;SDS011;64321;48.796;44.740;2023-03-30T13:54:51;5.05;;;3.83;;
75700;SDS011;64321;48.796;44.740;2023-03-30T13:59:57;4.03;;;2.65;;
75700;SDS011;64321;48.796;44.740;2023-03-30T14:05:10;3.10;;;1.80;;
75700;SDS011;64321;48.796;44.740;2023-03-30T14:10:16;3.80;;;2.22;;
75700;SDS011;64321;48.796;44.740;2023-03-30T14:15:21;3.75;;;3.00;;
75700;SDS011;64321;48.796;44.740;2023-03-30T14:25:28;4.60;;;3.35;;
75700;SDS011;64321;48.796;44.740;2023-03-30T14:30:36;4.57;;;3.38;;
75700;SDS011;64321;48.796;44.740;2023-03-30T14:35:56;5.60;;;3.92;;
75700;SDS011;64321;48.796;44.740;2023-03-30T14:41:31;4.65;;;3.30;;
75700;SDS011;64321;48.796;44.740;2023-03-30T14:46:56;4.65;;;3.35;;
75700;SDS011;64321;48.796;44.740;2023-03-30T14:58:38;3.65;;;2.20;;
75700;SDS011;64321;48.796;44.740;2023-03-30T15:04:07;3.75;;;2.63;;
75700;SDS011;64321;48.796;44.740;2023-03-30T15:09:56;2.67;;;1.58;;
75700;SDS011;64321;48.796;44.740;2023-03-30T15:15:22;4.57;;;3.63;;
75700;SDS011;64321;48.796;44.740;2023-03-30T15:21:03;5.38;;;3.38;;
75700;SDS011;64321;48.796;44.740;2023-03-30T15:26:24;4.35;;;2.58;;
75700;SDS011;64321;48.796;44.740;2023-03-30T15:38:31;4.38;;;2.75;;
75700;SDS011;64321;48.796;44.740;2023-03-30T15:44:11;6.68;;;3.58;;
75700;SDS011;64321;48.796;44.740;2023-03-30T15:49:43;4.18;;;2.38;;
75700;SDS011;64321;48.796;44.740;2023-03-30T15:55:39;5.68;;;4.03;;
75700;SDS011;64321;48.796;44.740;2023-03-30T16:01:14;5.05;;;3.95;;
75700;SDS011;64321;48.796;44.740;2023-03-30T16:06:41;4.80;;;2.30;;
75700;SDS011;64321;48.796;44.740;2023-03-30T16:17:59;4.47;;;2.58;;
75700;SDS011;64321;48.796;44.740;2023-03-30T16:23:14;3.78;;;2.00;;
75700;SDS011;64321;48.796;44.740;2023-03-30T16:29:03;3.15;;;2.38;;
75700;SDS011;64321;48.796;44.740;2023-03-30T16:34:18;4.57;;;2.40;;
75700;SDS011;64321;48.796;44.740;2023-03-30T16:39:32;4.22;;;2.75;;
75700;SDS011;64321;48.796;44.740;2023-03-30T16:45:41;4.28;;;3.15;;
75700;SDS011;64321;48.796;44.740;2023-03-30T16:51:38;2.67;;;1.52;;
75700;SDS011;64321;48.796;44.740;2023-03-30T16:57:04;3.60;;;2.33;;
75700;SDS011;64321;48.796;44.740;2023-03-30T17:02:31;3.38;;;2.60;;
75700;SDS011;64321;48.796;44.740;2023-03-30T17:08:39;2.92;;;2.33;;
75700;SDS011;64321;48.796;44.740;2023-03-30T17:14:12;2.97;;;2.22;;
75700;SDS011;64321;48.796;44.740;2023-03-30T17:19:37;3.25;;;2.42;;
75700;SDS011;64321;48.796;44.740;2023-03-30T17:25:18;3.38;;;1.35;;
75700;SDS011;64321;48.796;44.740;2023-03-30T17:31:01;3.63;;;2.55;;
75700;SDS011;64321;48.796;44.740;2023-03-30T17:41:44;4.20;;;1.52;;
75700;SDS011;64321;48.796;44.740;2023-03-30T17:47:41;2.70;;;1.38;;
75700;SDS011;64321;48.796;44.740;2023-03-30T17:53:00;4.72;;;2.38;;
75700;SDS011;64321;48.796;44.740;2023-03-30T17:58:33;2.83;;;1.75;;
75700;SDS011;64321;48.796;44.740;2023-03-30T18:04:42;3.50;;;2.50;;
75700;SDS011;64321;48.796;44.740;2023-03-30T18:15:49;3.75;;;1.90;;
75700;SDS011;64321;48.796;44.740;2023-03-30T18:21:44;3.03;;;1.50;;
75700;SDS011;64321;48.796;44.740;2023-03-30T18:27:23;3.28;;;2.20;;
75700;SDS011;64321;48.796;44.740;2023-03-30T18:38:40;2.50;;;1.50;;
75700;SDS011;64321;48.796;44.740;2023-03-30T18:44:25;2.50;;;1.88;;
75700;SDS011;64321;48.796;44.740;2023-03-30T18:56:04;3.25;;;1.88;;
75700;SDS011;64321;48.796;44.740;2023-03-30T19:01:32;1.65;;;0.80;;
75700;SDS011;64321;48.796;44.740;2023-03-30T19:06:57;1.50;;;0.80;;
75700;SDS011;64321;48.796;44.740;2023-03-30T19:18:24;2.88;;;1.88;;
75700;SDS011;64321;48.796;44.740;2023-03-30T19:23:52;1.33;;;0.75;;
75700;SDS011;64321;48.796;44.740;2023-03-30T19:29:38;2.10;;;1.52;;
75700;SDS011;64321;48.796;44.740;2023-03-30T19:35:47;1.90;;;1.35;;
75700;SDS011;64321;48.796;44.740;2023-03-30T19:41:35;1.65;;;0.57;;
75700;SDS011;64321;48.796;44.740;2023-03-30T19:46:58;1.75;;;1.30;;
75700;SDS011;64321;48.796;44.740;2023-03-30T19:58:41;3.42;;;1.95;;
75700;SDS011;64321;48.796;44.740;2023-03-30T20:04:08;2.47;;;1.02;;
75700;SDS011;64321;48.796;44.740;2023-03-30T20:09:39;1.48;;;0.73;;
75700;SDS011;64321;48.796;44.740;2023-03-30T20:21:03;1.52;;;0.73;;
75700;SDS011;64321;48.796;44.740;2023-03-30T20:26:48;1.85;;;1.63;;
75700;SDS011;64321;48.796;44.740;2023-03-30T20:32:43;1.75;;;0.75;;
75700;SDS011;64321;48.796;44.740;2023-03-30T20:39:01;1.67;;;1.10;;
75700;SDS011;64321;48.796;44.740;2023-03-30T20:44:27;3.85;;;2.25;;
75700;SDS011;64321;48.796;44.740;2023-03-30T20:55:46;2.15;;;1.55;;
75700;SDS011;64321;48.796;44.740;2023-03-30T21:01:23;2.15;;;0.70;;
75700;SDS011;64321;48.796;44.740;2023-03-30T21:13:03;2.58;;;1.40;;
75700;SDS011;64321;48.796;44.740;2023-03-30T21:19:14;2.60;;;1.25;;
75700;SDS011;64321;48.796;44.740;2023-03-30T21:24:55;2.85;;;0.73;;
75700;SDS011;64321;48.796;44.740;2023-03-30T21:30:21;2.30;;;1.75;;
75700;SDS011;64321;48.796;44.740;2023-03-30T21:36:09;3.25;;;2.25;;
75700;SDS011;64321;48.796;44.740;2023-03-30T21:53:34;2.85;;;2.25;;
75700;SDS011;64321;48.796;44.740;2023-03-30T21:58:59;5.05;;;1.50;;
75700;SDS011;64321;48.796;44.740;2023-03-30T22:04:26;3.80;;;1.02;;
75700;SDS011;64321;48.796;44.740;2023-03-30T22:09:48;2.50;;;1.00;;
75700;SDS011;64321;48.796;44.740;2023-03-30T22:15:11;2.78;;;1.27;;
75700;SDS011;64321;48.796;44.740;2023-03-30T22:21:28;3.83;;;2.67;;
75700;SDS011;64321;48.796;44.740;2023-03-30T22:27:00;4.28;;;2.55;;
75700;SDS011;64321;48.796;44.740;2023-03-30T22:32:30;3.33;;;1.67;;
75700;SDS011;64321;48.796;44.740;2023-03-30T22:38:04;3.47;;;2.08;;
75700;SDS011;64321;48.796;44.740;2023-03-30T22:43:53;3.70;;;2.33;;
75700;SDS011;64321;48.796;44.740;2023-03-30T22:49:18;4.03;;;2.53;;
75700;SDS011;64321;48.796;44.740;2023-03-30T22:54:39;4.13;;;2.75;;
75700;SDS011;64321;48.796;44.740;2023-03-30T23:00:11;2.72;;;1.65;;
75700;SDS011;64321;48.796;44.740;2023-03-30T23:05:41;4.70;;;2.55;;
75700;SDS011;64321;48.796;44.740;2023-03-30T23:11:42;3.70;;;2.33;;
75700;SDS011;64321;48.796;44.740;2023-03-30T23:17:46;3.55;;;2.05;;
75700;SDS011;64321;48.796;44.740;2023-03-30T23:23:27;3.03;;;1.02;;
75700;SDS011;64321;48.796;44.740;2023-03-30T23:29:01;3.47;;;1.45;;
75700;SDS011;64321;48.796;44.740;2023-03-30T23:34:44;3.83;;;1.70;;
75700;SDS011;64321;48.796;44.740;2023-03-30T23:41:16;3.63;;;2.15;;
75700;SDS011;64321;48.796;44.740;2023-03-30T23:46:35;3.95;;;2.65;;
75700;SDS011;64321;48.796;44.740;2023-03-30T23:52:13;3.53;;;2.47;;
75700;SDS011;64321;48.796;44.740;2023-03-30T23:57:58;4.00;;;3.13;;
